Flight Track Log - Related Links

Times and Time Zones

All times are in EDT time to prevent confusion due to time zone crossing. See the SKW5195 flight status page for this flight to view local times or setup timezone preferences in your user account.

Time Position Orientation Groundspeed Altitude Reporting Facility
EDT Latitude Longitude Course Direction KTS MPH feet Rate Location/Type
Fri 02:38:12 PM 29.9731 -95.3300 90° East 76 87 900  Level Houston Center
Fri 02:39:25 PM 29.9181 -95.3031 157° South 272 313 3,300 1,550 Climbing Houston Center
Fri 02:40:00 PM 29.9834 -94.8902 90° East  Level FlightAware Approximate
Fri 02:40:12 PM 29.8936 -95.2414 115° Southeast 275 316 4,000  Level Houston Center
Fri 02:40:27 PM 29.8831 -95.2206 120° Southeast 283 326 4,000  Level Houston Center
Fri 02:41:00 PM 29.9834 -94.7425 90° East  Level FlightAware Approximate
Fri 02:41:14 PM 29.8597 -95.1608 114° Southeast 278 320 4,000  Level Houston Center
Fri 02:42:00 PM 29.9833 -94.5948 90° East  Level FlightAware Approximate
Fri 02:42:17 PM 29.8594 -95.0767 90° East 267 307 6,800  Level Houston Center
Fri 02:43:00 PM 29.9833 -94.4471 90° East  Level FlightAware Approximate
Fri 02:43:19 PM 29.8819 -94.9886 74° East 284 327 9,200  Level Houston Center
Fri 02:44:21 PM 29.9081 -94.8897 73° East 328 377 10,300 1,597 Climbing Houston Center
Fri 02:45:23 PM 29.9378 -94.7733 74° East 373 429 12,500 2,177 Climbing Houston Center
Fri 02:46:25 PM 29.9750 -94.6278 74° East 392 451 14,800 2,226 Climbing Houston Center
Fri 02:47:27 PM 29.9903 -94.4961 82° East 411 473 17,100 1,790 Climbing Houston Center
Fri 02:48:29 PM 29.9944 -94.3683 88° East 423 487 18,500 1,392 Climbing Houston Center
Fri 02:49:32 PM 30.0067 -94.2286 84° East 440 506 20,000 1,680 Climbing Houston Center
Fri 02:50:34 PM 30.0272 -94.0556 82° East 454 522 22,000 1,694 Climbing Houston Center
Fri 02:51:36 PM 30.0464 -93.9086 81° East 463 533 23,500 1,355 Climbing Houston Center
Fri 02:52:38 PM 30.0636 -93.7592 82° East 471 542 24,800 1,210 Climbing Houston Center
Fri 02:53:40 PM 30.0817 -93.6067 82° East 484 557 26,000 1,016 Climbing Houston Center
Fri 02:54:42 PM 30.1039 -93.4181 82° East 500 575 26,900 1,113 Climbing Houston Center
Fri 02:55:44 PM 30.1233 -93.2589 82° East 508 585 28,300 1,597 Climbing Houston Center
Fri 02:56:46 PM 30.1469 -93.1033 80° East 502 578 30,200 1,645 Climbing Houston Center
Fri 02:57:48 PM 30.2131 -92.9739 59° Northeast 478 550 31,700 1,200 Climbing Houston Center
Fri 02:58:51 PM 30.2667 -92.8353 66° East 482 555 32,700 1,056 Climbing Houston Center
Fri 02:59:53 PM 30.3233 -92.6597 69° East 487 560 33,900 1,065 Climbing Houston Center
Fri 03:00:55 PM 30.3742 -92.5144 68° East 488 562 34,900 871 Climbing Houston Center
Fri 03:01:57 PM 30.4261 -92.3692 67° East 489 563 35,700 677 Climbing Houston Center
Fri 03:02:59 PM 30.4769 -92.2197 68° East 488 562 36,300 532 Climbing Houston Center
Fri 03:04:01 PM 30.5344 -92.0753 65° Northeast 498 573 36,800 532 Climbing Houston Center
Fri 03:05:03 PM 30.6267 -91.9189 56° Northeast 497 572 37,400 629 Climbing Houston Center
Fri 03:06:05 PM 30.7042 -91.7878 55° Northeast 496 571 38,100 672 Climbing Houston Center
Fri 03:07:08 PM 30.7797 -91.6578 56° Northeast 492 566 38,800 432 Climbing Houston Center
Fri 03:08:10 PM 30.8556 -91.5289 56° Northeast 487 560 39,000 97 Climbing Houston Center
Fri 03:09:12 PM 30.9311 -91.3964 56° Northeast 490 564 39,000  Level Houston Center
Fri 03:10:14 PM 31.0153 -91.2506 56° Northeast 493 567 39,000  Level Houston Center
Fri 03:11:17 PM 31.0919 -91.1172 56° Northeast 494 568 39,000  Level Houston Center
Fri 03:12:18 PM 31.1689 -90.9828 56° Northeast 497 572 39,000  Level Houston Center
Fri 03:13:20 PM 31.2467 -90.8464 56° Northeast 500 575 39,000  Level Houston Center
Fri 03:14:22 PM 31.3400 -90.6831 56° Northeast 503 579 39,000  Level Houston Center
Fri 03:15:24 PM 31.4181 -90.5461 56° Northeast 504 580 39,000  Level Houston Center
Fri 03:16:27 PM 31.4944 -90.4094 57° Northeast 502 578 39,000  Level Houston Center
Fri 03:17:29 PM 31.5717 -90.2728 56° Northeast 501 577 39,000  Level Houston Center
Fri 03:18:31 PM 31.6475 -90.1364 57° Northeast 499 574 39,000  Level Houston Center
Fri 03:19:33 PM 31.7239 -89.9989 57° Northeast 501 577 39,000  Level Houston Center
Fri 03:20:35 PM 31.8122 -89.8417 57° Northeast 499 574 39,000  Level Houston Center
Fri 03:21:37 PM 31.8869 -89.7050 57° Northeast 498 573 39,000  Level Houston Center
Fri 03:22:32 PM 31.9533 -89.5836 57° Northeast 498 573 39,000  Level Memphis Center
Fri 03:23:32 PM 32.0317 -89.4433 57° Northeast 498 573 39,000  Level Memphis Center
Fri 03:24:32 PM 32.1058 -89.3053 58° Northeast 498 573 39,000  Level Memphis Center
Fri 03:25:32 PM 32.1797 -89.1719 57° Northeast 498 573 39,000  Level Memphis Center
Fri 03:26:32 PM 32.2556 -89.0333 57° Northeast 493 567 39,000  Level Memphis Center
Fri 03:27:32 PM 32.3294 -88.8994 57° Northeast 493 567 39,000  Level Memphis Center
Fri 03:28:32 PM 32.4006 -88.7606 59° Northeast 493 567 39,000  Level Memphis Center
Fri 03:29:32 PM 32.4636 -88.6239 61° Northeast 480 552 39,000  Level Memphis Center
Fri 03:30:32 PM 32.5306 -88.4872 60° Northeast 474 545 39,000  Level Memphis Center
Fri 03:32:37 PM 32.6658 -88.1989 61° Northeast 454 522 39,000  Level Atlanta Center
Fri 03:33:37 PM 32.7286 -88.0661 61° Northeast 454 522 39,000  Level Atlanta Center
Fri 03:34:37 PM 32.7875 -87.9253 64° Northeast 468 539 39,000  Level Atlanta Center
Fri 03:35:37 PM 32.8522 -87.7897 60° Northeast 461 531 39,000  Level Atlanta Center
Fri 03:36:37 PM 32.9106 -87.6561 62° Northeast 461 531 39,000  Level Atlanta Center
Fri 03:37:37 PM 32.9706 -87.5225 62° Northeast 456 525 39,000  Level Atlanta Center
Fri 03:38:37 PM 33.0242 -87.4008 62° Northeast 456 525 39,000  Level Atlanta Center
Fri 03:39:37 PM 33.0861 -87.2644 62° Northeast 456 525 39,000  Level Atlanta Center
Fri 03:40:37 PM 33.1481 -87.1278 62° Northeast 456 525 39,000  Level Atlanta Center
Fri 03:41:37 PM 33.2164 -86.9836 60° Northeast 456 525 39,000  Level Atlanta Center
Fri 03:42:37 PM 33.2553 -86.8358 72° East 453 521 39,000  Level Atlanta Center
Fri 03:43:37 PM 33.2881 -86.6831 76° East 528 608 39,000  Level Atlanta Center
Fri 03:44:37 PM 33.2989 -86.5639 84° East 481 554 39,000  Level Atlanta Center
Fri 03:45:37 PM 33.3272 -86.3908 79° East 467 537 39,000  Level Atlanta Center
Fri 03:46:37 PM 33.3508 -86.2447 79° East 454 522 39,000  Level Atlanta Center
Fri 03:47:37 PM 33.3742 -86.1083 78° East 449 517 39,000  Level Atlanta Center
Fri 03:48:37 PM 33.3975 -85.9522 80° East 447 514 39,000  Level Atlanta Center
Fri 03:49:37 PM 33.4206 -85.8033 79° East 447 514 39,000  Level Atlanta Center
Fri 03:50:37 PM 33.4389 -85.6794 80° East 434 499 39,000  Level Atlanta Center
Fri 03:51:37 PM 33.4617 -85.5353 79° East 434 499 39,000  Level Atlanta Center
Fri 03:52:37 PM 33.4842 -85.3911 79° East 444 511 39,000  Level Atlanta Center
Fri 03:53:37 PM 33.5067 -85.2447 80° East 444 511 39,000  Level Atlanta Center
Fri 03:54:37 PM 33.5308 -85.0981 79° East 444 511 39,000  Level Atlanta Center
Fri 03:55:37 PM 33.5531 -84.9511 80° East 444 511 39,000  Level Atlanta Center
Fri 03:56:37 PM 33.5728 -84.8067 81° East 444 511 39,000 -50 Level Atlanta Center
Fri 03:57:37 PM 33.5967 -84.6447 80° East 451 519 38,900 -450 Descending Atlanta Center
Fri 03:58:37 PM 33.6117 -84.5203 82° East 444 511 38,100 -900 Descending Atlanta Center
Fri 03:59:37 PM 33.6456 -84.3731 75° East 439 505 37,100 -1,000 Descending Atlanta Center
Fri 04:00:37 PM 33.6878 -84.2336 70° East 444 511 36,100 -1,000 Descending Atlanta Center
Fri 04:01:37 PM 33.7275 -84.0861 72° East 461 531 35,100 -650 Descending Atlanta Center
Fri 04:02:37 PM 33.7672 -83.9439 71° East 451 519 34,800 -700 Descending Atlanta Center
Fri 04:03:37 PM 33.8067 -83.8014 72° East 446 513 33,700 -1,050 Descending Atlanta Center
Fri 04:04:37 PM 33.8500 -83.6436 72° East 441 507 32,700 -1,000 Descending Atlanta Center
Fri 04:05:37 PM 33.8911 -83.5008 71° East 441 507 31,700 -1,000 Descending Atlanta Center
Fri 04:06:37 PM 33.9281 -83.3603 72° East 441 507 30,700 -1,000 Descending Atlanta Center
Fri 04:07:37 PM 33.9669 -83.2197 72° East 446 513 29,700 -850 Descending Atlanta Center
Fri 04:08:37 PM 34.0075 -83.0792 71° East 446 513 29,000 -350 Descending Atlanta Center
Fri 04:09:37 PM 34.0439 -82.9358 73° East 446 513 29,000  Level Atlanta Center
Fri 04:10:37 PM 34.0928 -82.7972 67° East 446 513 29,000 -300 Level Atlanta Center
Fri 04:11:37 PM 34.1644 -82.6681 56° Northeast 446 513 28,400 -1,150 Descending Atlanta Center
Fri 04:12:37 PM 34.2236 -82.5489 59° Northeast 452 520 26,700 -1,850 Descending Atlanta Center
Fri 04:13:37 PM 34.2886 -82.4222 58° Northeast 452 520 24,700 -1,400 Descending Atlanta Center
Fri 04:14:37 PM 34.3497 -82.2978 59° Northeast 446 513 23,900 -1,450 Descending Atlanta Center
Fri 04:15:37 PM 34.4106 -82.1781 58° Northeast 427 491 21,800 -2,100 Descending Atlanta Center
Fri 04:16:37 PM 34.4733 -82.0633 56° Northeast 422 486 19,700 -1,950 Descending Atlanta Center
Fri 04:17:37 PM 34.5278 -81.9486 60° Northeast 400 460 17,900 -1,900 Descending Atlanta Center
Fri 04:18:37 PM 34.5803 -81.8464 58° Northeast 378 435 15,900 -2,000 Descending Atlanta Center
Fri 04:19:37 PM 34.6267 -81.7569 58° Northeast 341 392 13,900 -1,981 Descending Atlanta Center
Fri 04:20:20 PM 34.6650 -81.6825 58° Northeast 309 356 12,500 -1,700 Descending Atlanta Center
Fri 04:20:37 PM 34.6769 -81.6569 60° Northeast 319 367 12,200 -1,102 Descending Atlanta Center
Fri 04:21:09 PM 34.6989 -81.6108 60° Northeast 291 335 11,600 -1,000 Descending Atlanta Center
Fri 04:21:37 PM 34.7169 -81.5750 58° Northeast 292 336 11,200 -590 Descending Atlanta Center
Fri 04:22:10 PM 34.7411 -81.5339 54° Northeast 275 316 11,000 -200 Descending Atlanta Center
Fri 04:22:37 PM 34.7678 -81.5025 44° Northeast 278 320 11,000 -90 Level Atlanta Center
Fri 04:23:17 PM 34.7961 -81.4589 52° Northeast 278 320 10,900 -400 Descending Atlanta Center
Fri 04:23:37 PM 34.8142 -81.4303 52° Northeast 272 313 10,600 -984 Descending Atlanta Center
Fri 04:24:18 PM 34.8422 -81.3714 60° Northeast 282 325 9,900 -1,000 Descending Atlanta Center
Fri 04:24:37 PM 34.8564 -81.3481 53° Northeast 283 326 9,600 -985 Descending Atlanta Center
Fri 04:25:25 PM 34.8883 -81.2836 59° Northeast 287 330 8,800 -990 Descending Atlanta Center
Fri 04:26:20 PM 34.9011 -81.2022 79° East 262 302 7,900 -1,000 Descending Atlanta Center
Fri 04:26:37 PM 34.9067 -81.1794 73° East 263 303 7,600 -1,433 Descending Atlanta Center
Fri 04:27:27 PM 34.9281 -81.1128 69° East 247 284 6,300 -1,750 Descending Atlanta Center
Fri 04:28:37 PM 34.9636 -81.0253 64° Northeast 246 283 4,100 -1,062 Descending Atlanta Center
Fri 04:29:37 PM 35.0106 -80.9856 35° Northeast 232 267 4,000 -100 Descending Atlanta Center

Login

Don't have an account? Register now (free) for customized features, flight alerts, and more!